createdAt,value
2023-04-05T00:03:09.617Z,5.53
2023-04-05T00:08:12.805Z,5.74
2023-04-05T00:13:09.624Z,6.00
2023-04-05T00:18:06.461Z,6.27
2023-04-05T00:23:05.986Z,6.34
2023-04-05T00:28:02.801Z,6.29
2023-04-05T00:32:59.503Z,6.40
2023-04-05T00:37:56.829Z,6.25
2023-04-05T00:42:54.180Z,6.32
2023-04-05T00:47:50.987Z,6.24
2023-04-05T00:52:49.092Z,6.19
2023-04-05T00:57:45.800Z,6.34
2023-04-05T01:02:45.785Z,6.42
2023-04-05T01:07:46.632Z,6.74
2023-04-05T01:12:43.689Z,6.55
2023-04-05T01:17:41.454Z,6.52
2023-04-05T01:22:51.495Z,6.46
2023-04-05T01:28:13.462Z,6.44
2023-04-05T01:33:15.213Z,6.29
2023-04-05T01:38:14.825Z,6.31
2023-04-05T01:43:14.872Z,6.13
2023-04-05T01:48:12.464Z,6.30
2023-04-05T01:53:09.408Z,6.39
2023-04-05T01:58:06.112Z,6.44
2023-04-05T02:03:02.744Z,6.32
2023-04-05T02:08:00.729Z,6.51
2023-04-05T02:12:57.413Z,6.43
2023-04-05T02:17:54.384Z,6.56
2023-04-05T02:22:51.166Z,6.35
2023-04-05T02:27:49.082Z,6.59
2023-04-05T02:32:45.796Z,6.31
2023-04-05T02:37:42.402Z,6.15
2023-04-05T02:42:38.967Z,6.20
2023-04-05T02:47:36.313Z,5.60
2023-04-05T02:52:33.751Z,5.19
2023-04-05T02:57:30.715Z,5.01
2023-04-05T03:02:36.983Z,5.12
2023-04-05T03:07:34.984Z,5.11
2023-04-05T03:12:35.138Z,4.91
2023-04-05T03:17:32.512Z,4.82
2023-04-05T03:22:33.924Z,5.09
2023-04-05T03:27:32.164Z,4.79
2023-04-05T03:32:38.955Z,4.91
2023-04-05T03:37:48.812Z,5.16
2023-04-05T03:42:45.707Z,5.00
2023-04-05T03:47:42.497Z,5.01
2023-04-05T03:52:39.185Z,5.20
2023-04-05T03:57:37.780Z,5.32
2023-04-05T04:02:47.922Z,5.27
2023-04-05T04:07:49.889Z,5.10
2023-04-05T04:12:48.433Z,5.05
2023-04-05T04:17:46.283Z,5.12
2023-04-05T04:23:21.684Z,5.28
2023-04-05T04:28:50.881Z,5.40
2023-04-05T04:34:13.364Z,5.51
2023-04-05T04:39:30.972Z,5.34
2023-04-05T04:44:42.833Z,5.29
2023-04-05T04:49:42.247Z,5.30
2023-04-05T04:54:41.880Z,5.21
2023-04-05T04:59:38.935Z,5.01
2023-04-05T05:04:43.173Z,5.07
2023-04-05T05:09:40.014Z,5.29
2023-04-05T05:14:36.947Z,5.26
2023-04-05T05:19:33.684Z,5.22
2023-04-05T05:24:31.070Z,5.16
2023-04-05T05:29:28.811Z,5.11
2023-04-05T05:34:25.907Z,5.22
2023-04-05T05:39:33.490Z,5.19
2023-04-05T05:44:34.673Z,5.04
2023-04-05T05:49:34.156Z,4.99
2023-04-05T05:54:31.050Z,5.01
2023-04-05T05:59:27.864Z,5.11
2023-04-05T06:04:28.961Z,5.19
2023-04-05T06:09:28.707Z,5.23
2023-04-05T06:14:29.310Z,5.15
2023-04-05T06:19:41.817Z,5.00
2023-04-05T06:24:38.796Z,5.14
2023-04-05T06:29:35.487Z,4.95
2023-04-05T06:34:36.761Z,5.05
2023-04-05T06:39:53.755Z,5.19
2023-04-05T06:44:51.082Z,5.35
2023-04-05T06:49:51.466Z,5.37
2023-04-05T06:54:54.641Z,5.36
2023-04-05T06:59:53.973Z,5.40
2023-04-05T07:10:22.319Z,5.61
2023-04-05T07:15:19.355Z,5.56
2023-04-05T07:20:47.627Z,5.73
2023-04-05T07:26:18.312Z,5.82
2023-04-05T07:31:27.110Z,5.59
2023-04-05T07:36:35.352Z,6.01
2023-04-05T07:41:51.884Z,6.11
2023-04-05T07:47:09.737Z,5.97
2023-04-05T07:57:20.431Z,6.31
2023-04-05T08:02:21.939Z,6.40
2023-04-05T08:07:46.051Z,6.20
2023-04-05T08:12:58.595Z,6.42
2023-04-05T08:18:13.611Z,6.59
2023-04-05T08:23:38.211Z,6.68
2023-04-05T08:29:06.016Z,6.64
2023-04-05T08:34:19.501Z,6.82
2023-04-05T08:39:37.890Z,6.87
2023-04-05T08:44:46.089Z,7.30
2023-04-05T08:49:43.207Z,7.21
2023-04-05T08:54:44.969Z,7.17
2023-04-05T08:59:47.982Z,7.50
2023-04-05T09:04:46.316Z,7.45
2023-04-05T09:09:46.428Z,7.37
2023-04-05T09:14:47.875Z,7.18
2023-04-05T09:19:44.959Z,7.12
2023-04-05T09:24:42.219Z,7.19
2023-04-05T09:29:40.492Z,7.19
2023-04-05T09:34:41.174Z,7.05
2023-04-05T09:39:46.720Z,7.07
2023-04-05T09:44:54.238Z,7.08
2023-04-05T09:49:51.275Z,7.33
2023-04-05T09:54:48.982Z,7.39
2023-04-05T09:59:46.006Z,7.64
2023-04-05T10:04:44.289Z,7.87
2023-04-05T10:09:42.030Z,7.70
2023-04-05T10:14:39.299Z,7.65
2023-04-05T10:19:40.115Z,7.85
2023-04-05T10:24:40.219Z,7.85
2023-04-05T10:29:44.335Z,7.57
2023-04-05T10:34:45.549Z,7.93
2023-04-05T10:39:46.808Z,7.82
2023-04-05T10:44:51.109Z,7.91
2023-04-05T10:49:57.010Z,8.08
2023-04-05T10:55:06.616Z,7.96
2023-04-05T11:00:03.728Z,8.11
2023-04-05T11:05:04.363Z,7.98
2023-04-05T11:10:02.614Z,8.09
2023-04-05T11:15:28.387Z,8.23
2023-04-05T11:20:25.308Z,8.07
2023-04-05T11:25:25.045Z,8.05
2023-04-05T11:30:43.605Z,7.83
2023-04-05T11:35:40.542Z,8.03
2023-04-05T11:40:40.198Z,7.84
2023-04-05T11:45:38.226Z,7.94
2023-04-05T11:50:35.888Z,7.97
2023-04-05T11:55:32.732Z,7.88
2023-04-05T12:00:30.161Z,7.96
2023-04-05T12:05:32.146Z,7.98
2023-04-05T12:10:28.873Z,8.02
2023-04-05T12:15:25.829Z,8.18
2023-04-05T12:20:27.257Z,8.28
2023-04-05T12:25:24.504Z,8.41
2023-04-05T12:30:22.145Z,8.55
2023-04-05T12:35:19.938Z,8.43
2023-04-05T12:40:23.966Z,8.27
2023-04-05T12:45:23.433Z,8.18
2023-04-05T12:50:26.356Z,7.98
2023-04-05T12:55:23.992Z,7.94
2023-04-05T13:00:24.192Z,8.17
2023-04-05T13:05:21.701Z,8.36
2023-04-05T13:10:19.027Z,8.37
2023-04-05T13:15:17.037Z,8.33
2023-04-05T13:20:13.876Z,8.22
2023-04-05T13:25:10.712Z,8.47
2023-04-05T13:30:07.597Z,8.44
2023-04-05T13:35:05.588Z,8.41
2023-04-05T13:40:02.357Z,8.19
2023-04-05T13:44:59.472Z,8.37
2023-04-05T13:49:57.299Z,8.30
2023-04-05T13:55:03.264Z,8.51
2023-04-05T14:00:00.850Z,8.73
2023-04-05T14:04:57.738Z,8.96
2023-04-05T14:09:57.918Z,8.95
2023-04-05T14:14:54.635Z,8.72
2023-04-05T14:19:51.613Z,9.03
2023-04-05T14:24:48.745Z,9.06
2023-04-05T14:29:46.228Z,8.99
2023-04-05T14:34:42.983Z,8.90
2023-04-05T14:39:39.795Z,8.87
2023-04-05T14:44:36.673Z,8.90
2023-04-05T14:49:34.191Z,8.88
2023-04-05T14:54:30.931Z,9.17
2023-04-05T14:59:27.573Z,9.16
2023-04-05T15:04:24.427Z,9.04
2023-04-05T15:09:23.827Z,9.08
2023-04-05T15:14:31.020Z,9.01
2023-04-05T15:19:30.082Z,8.81
2023-04-05T15:24:27.624Z,8.60
2023-04-05T15:29:25.758Z,8.76
2023-04-05T15:34:22.667Z,8.54
2023-04-05T15:39:19.527Z,8.48
2023-04-05T15:44:19.793Z,8.50
2023-04-05T15:49:17.640Z,8.63
2023-04-05T15:54:20.361Z,8.46
2023-04-05T15:59:21.027Z,8.34
2023-04-05T16:04:18.454Z,8.00
2023-04-05T16:09:15.237Z,8.13
2023-04-05T16:14:12.421Z,8.17
2023-04-05T16:19:10.199Z,8.19
2023-04-05T16:24:07.104Z,7.90
2023-04-05T16:29:04.038Z,7.56
2023-04-05T16:34:05.805Z,7.61
2023-04-05T16:39:05.836Z,7.51
2023-04-05T16:44:02.810Z,7.37
2023-04-05T16:48:59.681Z,7.23
2023-04-05T16:53:56.459Z,7.34
2023-04-05T16:58:54.714Z,7.25
2023-04-05T17:03:51.479Z,7.38
2023-04-05T17:08:49.939Z,7.33
2023-04-05T17:13:46.750Z,7.09
2023-04-05T17:18:45.511Z,7.15
2023-04-05T17:23:42.319Z,6.99
2023-04-05T17:28:39.094Z,6.99
2023-04-05T17:33:36.000Z,6.78
2023-04-05T17:38:33.502Z,6.89
2023-04-05T17:43:30.171Z,7.03
2023-04-05T17:48:28.788Z,6.83
2023-04-05T17:53:25.763Z,6.70
2023-04-05T17:58:23.300Z,6.89
2023-04-05T18:03:20.241Z,7.18
2023-04-05T18:08:17.126Z,7.06
2023-04-05T18:13:15.224Z,7.11
2023-04-05T18:18:12.490Z,7.20
2023-04-05T18:23:09.184Z,7.00
2023-04-05T18:28:19.392Z,6.75
2023-04-05T18:33:21.927Z,6.73
2023-04-05T18:38:18.694Z,6.49
2023-04-05T18:43:15.432Z,6.47
2023-04-05T18:48:15.269Z,6.25
2023-04-05T18:53:17.460Z,6.01
2023-04-05T18:58:20.347Z,5.77
2023-04-05T19:03:19.615Z,5.56
2023-04-05T19:08:20.599Z,5.56
2023-04-05T19:13:19.325Z,5.61
2023-04-05T19:18:19.115Z,5.51
2023-04-05T19:23:15.823Z,5.43
2023-04-05T19:28:13.160Z,5.40
2023-04-05T19:33:10.221Z,5.34
2023-04-05T19:38:06.989Z,5.32
2023-04-05T19:43:04.169Z,5.43
2023-04-05T19:48:02.412Z,5.13
2023-04-05T19:52:59.620Z,5.21
2023-04-05T19:58:07.974Z,5.12
2023-04-05T20:03:18.942Z,5.14
2023-04-05T20:08:16.294Z,5.37
2023-04-05T20:13:14.777Z,5.31
2023-04-05T20:18:14.928Z,5.14
2023-04-05T20:23:11.862Z,4.89
2023-04-05T20:28:29.544Z,5.29
2023-04-05T20:33:34.099Z,5.10
2023-04-05T20:38:30.748Z,5.14
2023-04-05T20:43:27.662Z,5.24
2023-04-05T20:48:25.022Z,5.19
2023-04-05T20:53:22.499Z,5.00
2023-04-05T20:58:19.295Z,5.02
2023-04-05T21:03:16.373Z,5.10
2023-04-05T21:08:16.170Z,5.19
2023-04-05T21:13:13.631Z,5.01
2023-04-05T21:18:10.675Z,4.95
2023-04-05T21:23:07.622Z,4.86
2023-04-05T21:28:04.551Z,4.94
2023-04-05T21:33:01.934Z,4.87
2023-04-05T21:37:58.708Z,5.11
2023-04-05T21:42:55.340Z,4.82
2023-04-05T21:47:52.472Z,4.83
2023-04-05T21:52:49.978Z,4.64
2023-04-05T21:57:46.785Z,4.66
2023-04-05T22:02:43.379Z,4.68
2023-04-05T22:07:42.308Z,4.58
2023-04-05T22:12:40.129Z,4.61
2023-04-05T22:17:36.969Z,4.42
2023-04-05T22:22:33.902Z,4.46
2023-04-05T22:27:30.501Z,4.74
2023-04-05T22:32:27.894Z,4.83
2023-04-05T22:37:24.596Z,4.74
2023-04-05T22:42:21.222Z,4.68
2023-04-05T22:47:17.835Z,4.81
2023-04-05T22:52:15.210Z,4.77
2023-04-05T22:57:13.777Z,4.77
2023-04-05T23:02:11.725Z,4.95
2023-04-05T23:07:08.375Z,5.16
2023-04-05T23:12:06.358Z,5.05
2023-04-05T23:17:04.552Z,5.11
2023-04-05T23:22:01.200Z,5.22
2023-04-05T23:26:57.851Z,5.01
2023-04-05T23:31:55.364Z,4.94
2023-04-05T23:36:52.048Z,4.93
2023-04-05T23:41:48.816Z,4.92
2023-04-05T23:46:48.893Z,4.80
2023-04-05T23:51:46.288Z,4.68
2023-04-05T23:56:42.929Z,4.82
